createdAt,value
2023-05-19T00:00:45.029Z,48.66
2023-05-19T00:01:43.365Z,47.05
2023-05-19T00:02:43.546Z,47.70
2023-05-19T00:03:43.421Z,48.98
2023-05-19T00:04:43.389Z,48.98
2023-05-19T00:05:43.422Z,49.79
2023-05-19T00:06:43.320Z,48.98
2023-05-19T00:07:43.651Z,48.98
2023-05-19T00:08:43.384Z,48.66
2023-05-19T00:09:43.350Z,50.11
2023-05-19T00:10:43.315Z,49.15
2023-05-19T00:11:43.281Z,48.66
2023-05-19T00:12:43.344Z,50.11
2023-05-19T00:13:43.307Z,48.50
2023-05-19T00:14:43.257Z,49.31
2023-05-19T00:15:43.294Z,52.05
2023-05-19T00:16:43.251Z,48.18
2023-05-19T00:17:43.347Z,47.86
2023-05-19T00:18:43.642Z,49.47
2023-05-19T00:19:43.222Z,49.15
2023-05-19T00:20:43.214Z,48.66
2023-05-19T00:21:43.226Z,48.82
2023-05-19T00:22:43.125Z,48.66
2023-05-19T00:23:43.085Z,47.70
2023-05-19T00:24:43.099Z,48.98
2023-05-19T00:25:43.101Z,49.63
2023-05-19T00:26:43.053Z,50.27
2023-05-19T00:27:43.153Z,49.95
2023-05-19T00:28:43.062Z,52.21
2023-05-19T00:29:43.101Z,50.92
2023-05-19T00:30:43.107Z,50.92
2023-05-19T00:31:43.139Z,52.37
2023-05-19T00:32:43.162Z,52.37
2023-05-19T00:33:43.107Z,51.56
2023-05-19T00:34:43.197Z,52.05
2023-05-19T00:35:43.362Z,50.27
2023-05-19T00:36:43.182Z,50.76
2023-05-19T00:37:43.167Z,51.40
2023-05-19T00:38:43.098Z,51.40
2023-05-19T00:39:43.160Z,51.72
2023-05-19T00:40:43.049Z,50.92
2023-05-19T00:41:43.044Z,51.88
2023-05-19T00:42:43.052Z,51.56
2023-05-19T00:43:43.042Z,51.88
2023-05-19T00:44:43.031Z,51.72
2023-05-19T00:45:43.070Z,52.69
2023-05-19T00:46:43.295Z,52.05
2023-05-19T00:47:43.084Z,52.85
2023-05-19T00:48:43.010Z,53.66
2023-05-19T00:49:43.022Z,53.50
2023-05-19T00:50:43.036Z,53.17
2023-05-19T00:51:43.031Z,52.85
2023-05-19T00:52:43.006Z,53.50
2023-05-19T00:53:42.985Z,52.85
2023-05-19T00:54:43.044Z,53.01
2023-05-19T00:55:43.033Z,53.50
2023-05-19T00:56:42.849Z,53.17
2023-05-19T00:57:42.837Z,52.37
2023-05-19T00:58:42.876Z,52.69
2023-05-19T00:59:42.852Z,52.53
2023-05-19T01:00:43.421Z,52.85
2023-05-19T01:01:42.928Z,52.37
2023-05-19T01:02:43.069Z,52.69
2023-05-19T01:03:43.369Z,53.50
2023-05-19T01:04:42.946Z,52.53
2023-05-19T01:05:42.960Z,52.37
2023-05-19T01:06:42.895Z,53.01
2023-05-19T01:07:42.887Z,53.50
2023-05-19T01:08:42.850Z,52.37
2023-05-19T01:09:42.880Z,52.37
2023-05-19T01:10:42.891Z,52.21
2023-05-19T01:11:42.917Z,53.01
2023-05-19T01:12:42.847Z,52.69
2023-05-19T01:13:43.930Z,53.66
2023-05-19T01:14:43.162Z,52.85
2023-05-19T01:15:42.892Z,53.33
2023-05-19T01:16:43.008Z,53.01
2023-05-19T01:17:42.915Z,53.01
2023-05-19T01:18:42.824Z,53.50
2023-05-19T01:19:42.885Z,54.30
2023-05-19T01:20:42.800Z,53.33
2023-05-19T01:21:42.797Z,54.46
2023-05-19T01:22:42.725Z,54.95
2023-05-19T01:23:42.735Z,53.98
2023-05-19T01:24:42.681Z,53.33
2023-05-19T01:25:42.655Z,53.98
2023-05-19T01:26:42.635Z,54.46
2023-05-19T01:27:42.718Z,53.82
2023-05-19T01:28:42.669Z,54.14
2023-05-19T01:29:42.614Z,54.95
2023-05-19T01:30:42.681Z,54.79
2023-05-19T01:31:42.690Z,54.14
2023-05-19T01:32:42.695Z,54.14
2023-05-19T01:33:42.628Z,54.30
2023-05-19T01:34:43.697Z,54.30
2023-05-19T01:35:42.596Z,54.46
2023-05-19T01:36:42.714Z,54.95
2023-05-19T01:37:42.768Z,53.33
2023-05-19T01:38:42.684Z,53.50
2023-05-19T01:39:42.683Z,55.43
2023-05-19T01:40:42.759Z,53.01
2023-05-19T01:41:42.705Z,53.33
2023-05-19T01:42:42.757Z,53.50
2023-05-19T01:43:42.705Z,54.30
2023-05-19T01:44:42.705Z,55.59
2023-05-19T01:45:43.052Z,55.27
2023-05-19T01:46:42.711Z,53.98
2023-05-19T01:47:42.699Z,54.46
2023-05-19T01:48:42.634Z,54.95
2023-05-19T01:49:42.611Z,55.43
2023-05-19T01:50:42.632Z,54.95
2023-05-19T01:51:42.610Z,53.82
2023-05-19T01:52:42.638Z,54.14
2023-05-19T01:53:42.632Z,54.95
2023-05-19T01:54:42.567Z,53.33
2023-05-19T01:55:42.553Z,53.01
2023-05-19T01:56:42.853Z,53.50
2023-05-19T01:57:42.854Z,53.82
2023-05-19T01:58:42.566Z,54.46
2023-05-19T01:59:42.490Z,53.50
2023-05-19T02:00:42.440Z,53.82
2023-05-19T02:01:42.543Z,54.95
2023-05-19T02:02:42.425Z,54.95
2023-05-19T02:03:42.432Z,53.98
2023-05-19T02:04:42.537Z,53.17
2023-05-19T02:05:42.410Z,53.50
2023-05-19T02:06:42.376Z,54.46
2023-05-19T02:07:42.423Z,54.30
2023-05-19T02:08:42.394Z,53.17
2023-05-19T02:09:42.418Z,54.95
2023-05-19T02:10:42.508Z,54.30
2023-05-19T02:11:42.465Z,54.95
2023-05-19T02:12:42.486Z,54.79
2023-05-19T02:13:42.354Z,53.98
2023-05-19T02:14:42.754Z,54.62
2023-05-19T02:15:42.576Z,55.27
2023-05-19T02:16:42.482Z,54.79
2023-05-19T02:17:42.454Z,55.91
2023-05-19T02:18:42.449Z,56.40
2023-05-19T02:19:42.406Z,56.40
2023-05-19T02:20:42.433Z,56.40
2023-05-19T02:21:42.426Z,56.40
2023-05-19T02:22:42.422Z,58.01
2023-05-19T02:23:42.423Z,57.20
2023-05-19T02:24:42.441Z,56.72
2023-05-19T02:25:42.697Z,56.40
2023-05-19T02:26:42.335Z,56.72
2023-05-19T02:27:42.354Z,56.40
2023-05-19T02:28:42.340Z,56.88
2023-05-19T02:29:42.343Z,56.40
2023-05-19T02:30:42.395Z,56.56
2023-05-19T02:31:43.458Z,57.52
2023-05-19T02:32:42.466Z,56.72
2023-05-19T02:33:42.295Z,57.69
2023-05-19T02:34:42.337Z,57.20
2023-05-19T02:35:42.318Z,58.01
2023-05-19T02:36:42.636Z,57.04
2023-05-19T02:37:42.263Z,56.72
2023-05-19T02:38:42.238Z,56.88
2023-05-19T02:39:42.301Z,59.94
2023-05-19T02:40:42.192Z,58.33
2023-05-19T02:41:42.249Z,58.49
2023-05-19T02:42:42.173Z,58.97
2023-05-19T02:43:42.181Z,58.33
2023-05-19T02:44:42.167Z,59.62
2023-05-19T02:45:42.162Z,58.97
2023-05-19T02:46:42.409Z,58.97
2023-05-19T02:47:43.198Z,58.65
2023-05-19T02:48:42.114Z,58.65
2023-05-19T02:49:42.168Z,57.52
2023-05-19T02:50:42.258Z,58.81
2023-05-19T02:51:42.248Z,57.52
2023-05-19T02:52:42.231Z,57.20
2023-05-19T02:53:42.284Z,59.14
2023-05-19T02:54:42.484Z,57.69
2023-05-19T02:55:42.196Z,58.01
2023-05-19T02:56:42.193Z,57.36
2023-05-19T02:57:42.222Z,57.85
2023-05-19T02:58:42.190Z,57.69
2023-05-19T02:59:42.173Z,57.36
2023-05-19T03:00:42.157Z,57.52
2023-05-19T03:01:42.151Z,55.91
2023-05-19T03:02:42.260Z,56.72
2023-05-19T03:03:42.274Z,54.46
2023-05-19T03:04:42.117Z,54.95
2023-05-19T03:05:42.373Z,56.40
2023-05-19T03:06:43.070Z,59.78
2023-05-19T03:07:42.090Z,59.14
2023-05-19T03:08:42.516Z,58.81
2023-05-19T03:09:43.088Z,59.94
2023-05-19T03:10:42.072Z,59.30
2023-05-19T03:11:42.068Z,58.97
2023-05-19T03:12:42.336Z,58.17
2023-05-19T03:13:41.989Z,59.30
2023-05-19T03:14:41.940Z,57.52
2023-05-19T03:15:41.964Z,57.85
2023-05-19T03:16:42.141Z,58.17
2023-05-19T03:17:42.086Z,58.97
2023-05-19T03:18:41.945Z,58.65
2023-05-19T03:19:41.902Z,59.94
2023-05-19T03:20:41.933Z,57.36
2023-05-19T03:21:41.906Z,58.01
2023-05-19T03:22:41.908Z,58.17
2023-05-19T03:23:42.045Z,60.26
2023-05-19T03:24:41.985Z,59.46
2023-05-19T03:25:41.975Z,57.04
2023-05-19T03:26:41.973Z,58.17
2023-05-19T03:27:42.021Z,59.62
2023-05-19T03:28:41.934Z,57.20
2023-05-19T03:29:42.048Z,56.40
2023-05-19T03:30:41.986Z,58.65
2023-05-19T03:31:41.938Z,60.10
2023-05-19T03:32:42.099Z,59.78
2023-05-19T03:33:42.285Z,59.30
2023-05-19T03:34:41.961Z,57.36
2023-05-19T03:35:41.935Z,57.69
2023-05-19T03:36:41.902Z,56.56
2023-05-19T03:37:41.895Z,58.01
2023-05-19T03:38:41.877Z,58.65
2023-05-19T03:39:42.381Z,59.30
2023-05-19T03:40:41.872Z,59.62
2023-05-19T03:41:42.003Z,58.49
2023-05-19T03:42:41.864Z,58.65
2023-05-19T03:43:41.873Z,59.94
2023-05-19T03:44:41.737Z,60.59
2023-05-19T03:45:41.963Z,57.20
2023-05-19T03:46:41.818Z,58.17
2023-05-19T03:47:41.821Z,58.17
2023-05-19T03:48:41.819Z,58.97
2023-05-19T03:49:41.853Z,57.52
2023-05-19T03:50:41.809Z,58.65
2023-05-19T03:51:41.789Z,58.65
2023-05-19T03:52:41.746Z,57.20
2023-05-19T03:53:41.783Z,58.97
2023-05-19T03:54:41.798Z,58.01
2023-05-19T03:55:41.719Z,58.49
2023-05-19T03:56:41.680Z,57.20
2023-05-19T03:57:41.658Z,57.20
2023-05-19T03:58:41.648Z,57.69
2023-05-19T03:59:41.645Z,56.24
2023-05-19T04:00:41.761Z,58.33
2023-05-19T04:01:41.986Z,58.17
2023-05-19T04:02:41.688Z,58.49
2023-05-19T04:03:41.793Z,58.01
2023-05-19T04:04:41.843Z,60.26
2023-05-19T04:05:41.713Z,57.85
2023-05-19T04:06:41.830Z,57.69
2023-05-19T04:07:41.949Z,56.72
2023-05-19T04:08:41.756Z,55.91
2023-05-19T04:09:41.752Z,55.75
2023-05-19T04:10:41.681Z,56.07
2023-05-19T04:11:41.669Z,59.78
2023-05-19T04:12:41.689Z,56.72
2023-05-19T04:13:41.568Z,57.69
2023-05-19T04:14:41.629Z,59.78
2023-05-19T04:15:41.719Z,57.85
2023-05-19T08:15:48.919Z,54.46
2023-05-19T08:16:48.938Z,51.56
2023-05-19T08:17:49.215Z,51.40
2023-05-19T08:18:50.172Z,53.98
2023-05-19T08:19:50.049Z,53.66
2023-05-19T08:20:50.139Z,55.91
2023-05-19T08:21:50.107Z,53.98
2023-05-19T08:22:50.085Z,53.33
2023-05-19T08:23:50.000Z,52.37
2023-05-19T08:24:49.940Z,52.53
2023-05-19T08:25:49.917Z,54.30
2023-05-19T08:26:49.936Z,52.53
2023-05-19T08:27:50.073Z,54.14
2023-05-19T08:28:49.940Z,52.85
2023-05-19T08:29:49.909Z,53.98
2023-05-19T08:30:50.034Z,53.01
2023-05-19T08:31:49.919Z,50.11
2023-05-19T08:32:49.994Z,51.72
2023-05-19T08:33:50.190Z,51.08
2023-05-19T08:34:50.001Z,51.08
2023-05-19T08:35:49.990Z,56.07
2023-05-19T08:36:49.910Z,52.85
2023-05-19T08:37:49.981Z,50.27
2023-05-19T08:38:49.952Z,49.31
2023-05-19T08:39:49.965Z,50.11
2023-05-19T08:40:49.954Z,52.21
2023-05-19T08:41:49.921Z,52.53
2023-05-19T08:42:49.850Z,49.15
2023-05-19T08:43:49.954Z,53.01
2023-05-19T08:44:50.101Z,52.21
2023-05-19T08:45:49.870Z,53.82
2023-05-19T08:46:50.041Z,55.27
2023-05-19T08:47:49.940Z,52.05
2023-05-19T08:48:50.067Z,52.53
2023-05-19T08:49:49.869Z,52.37
2023-05-19T08:50:49.909Z,51.24
2023-05-19T08:51:49.871Z,50.11
2023-05-19T08:52:52.490Z,51.72
2023-05-19T08:53:50.972Z,51.08
2023-05-19T08:54:49.718Z,52.69
2023-05-19T08:55:49.692Z,50.92
2023-05-19T08:56:49.791Z,52.69
2023-05-19T08:57:49.749Z,53.82
2023-05-19T08:58:49.758Z,53.33
2023-05-19T08:59:49.663Z,51.72
2023-05-19T09:00:49.669Z,52.69
2023-05-19T09:01:49.652Z,51.40
2023-05-19T09:02:59.855Z,50.76
2023-05-19T09:03:51.756Z,51.56
2023-05-19T09:04:49.739Z,51.08
2023-05-19T09:05:49.766Z,52.85
2023-05-19T09:06:49.757Z,52.85
2023-05-19T09:07:49.720Z,49.47
2023-05-19T09:08:49.796Z,49.79
2023-05-19T09:09:49.818Z,50.11
2023-05-19T09:10:49.827Z,50.43
2023-05-19T09:11:49.945Z,49.63
2023-05-19T09:12:49.928Z,48.82
2023-05-19T09:13:49.536Z,48.98
2023-05-19T09:14:49.647Z,48.66
2023-05-19T09:15:50.726Z,48.18
2023-05-19T09:16:49.855Z,48.98
2023-05-19T09:17:49.732Z,48.98
2023-05-19T09:18:49.673Z,48.34
2023-05-19T09:19:49.584Z,49.15
2023-05-19T09:20:49.630Z,47.37
2023-05-19T09:21:50.219Z,48.02
2023-05-19T09:22:49.608Z,46.73
2023-05-19T09:23:49.769Z,48.98
2023-05-19T09:24:49.537Z,49.31
2023-05-19T09:25:49.622Z,48.66
2023-05-19T09:26:50.026Z,49.63
2023-05-19T09:27:49.983Z,49.63
2023-05-19T09:28:49.844Z,48.66
2023-05-19T09:29:49.649Z,49.79
2023-05-19T09:30:49.567Z,48.82
2023-05-19T09:31:50.029Z,49.95
2023-05-19T09:32:49.556Z,47.53
2023-05-19T09:33:49.560Z,48.34
2023-05-19T09:34:49.563Z,49.31
2023-05-19T09:35:49.498Z,48.34
2023-05-19T09:36:51.534Z,49.79
2023-05-19T09:37:49.518Z,50.92
2023-05-19T09:38:49.457Z,53.01
2023-05-19T09:39:49.777Z,51.56
2023-05-19T09:40:49.602Z,53.82
2023-05-19T09:41:49.762Z,51.88
2023-05-19T09:42:49.558Z,52.05
2023-05-19T09:43:49.505Z,48.18
2023-05-19T09:44:49.447Z,48.98
2023-05-19T09:45:49.382Z,48.34
2023-05-19T09:46:49.345Z,48.66
2023-05-19T09:47:49.510Z,48.18
2023-05-19T09:48:49.497Z,47.70
2023-05-19T09:49:49.571Z,47.70
2023-05-19T09:50:49.530Z,48.02
2023-05-19T09:51:49.356Z,48.02
2023-05-19T09:52:50.490Z,48.82
2023-05-19T09:53:49.328Z,47.86
2023-05-19T09:54:49.627Z,48.82
2023-05-19T09:55:49.478Z,48.18
2023-05-19T09:56:49.577Z,50.92
2023-05-19T09:57:49.536Z,48.34
2023-05-19T09:58:49.472Z,49.47
2023-05-19T09:59:49.600Z,51.56
2023-05-19T10:00:49.441Z,50.43
2023-05-19T10:01:49.596Z,50.92
2023-05-19T10:02:49.290Z,49.95
2023-05-19T10:03:49.596Z,52.85
2023-05-19T10:04:49.368Z,51.56
2023-05-19T10:05:49.745Z,52.37
2023-05-19T10:06:49.501Z,52.69
2023-05-19T10:07:49.615Z,53.01
2023-05-19T10:08:49.867Z,51.40
2023-05-19T10:09:49.624Z,52.85
2023-05-19T10:10:49.187Z,57.69
2023-05-19T10:11:49.243Z,56.88
2023-05-19T10:12:49.231Z,51.88
2023-05-19T10:13:50.246Z,51.24
2023-05-19T10:14:49.118Z,51.88
2023-05-19T10:15:57.929Z,52.69
2023-05-19T10:16:51.222Z,51.72
2023-05-19T10:17:49.141Z,51.40
2023-05-19T10:18:49.259Z,52.53
2023-05-19T10:19:49.225Z,49.47
2023-05-19T10:20:49.189Z,50.27
2023-05-19T10:21:49.237Z,50.92
2023-05-19T10:22:49.274Z,51.24
2023-05-19T10:23:49.474Z,50.43
2023-05-19T10:24:49.176Z,50.76
2023-05-19T10:25:49.394Z,51.08
2023-05-19T10:26:49.157Z,52.21
2023-05-19T10:27:49.176Z,51.72
2023-05-19T10:28:49.150Z,51.88
2023-05-19T10:29:49.630Z,51.40
2023-05-19T10:30:49.172Z,53.50
2023-05-19T10:31:49.344Z,50.43
2023-05-19T10:32:49.191Z,51.56
2023-05-19T10:33:49.432Z,52.85
2023-05-19T10:34:49.604Z,51.08
2023-05-19T10:35:49.270Z,50.11
2023-05-19T10:36:49.569Z,49.47
2023-05-19T10:37:50.169Z,50.43
2023-05-19T10:38:49.132Z,49.63
2023-05-19T10:39:49.125Z,51.24
2023-05-19T10:40:48.986Z,50.76
2023-05-19T10:41:49.008Z,49.95
2023-05-19T10:42:49.028Z,51.08
2023-05-19T10:43:48.911Z,49.95
2023-05-19T10:44:49.592Z,50.60
2023-05-19T10:45:48.883Z,49.31
2023-05-19T10:46:49.098Z,49.31
2023-05-19T10:47:48.905Z,48.50
2023-05-19T10:48:49.211Z,49.15
2023-05-19T10:49:48.972Z,48.34
2023-05-19T10:50:48.978Z,49.15
2023-05-19T10:51:49.205Z,49.79
2023-05-19T10:52:49.173Z,49.79
2023-05-19T10:53:49.568Z,50.60
2023-05-19T10:54:49.485Z,50.76
2023-05-19T10:55:49.267Z,53.33
2023-05-19T10:56:49.016Z,48.66
2023-05-19T10:57:48.959Z,47.05
2023-05-19T10:58:49.026Z,50.92
2023-05-19T10:59:49.247Z,51.08
2023-05-19T11:00:49.365Z,49.47
2023-05-19T11:01:49.028Z,49.47
2023-05-19T11:02:49.826Z,50.92
2023-05-19T11:03:49.114Z,48.66
2023-05-19T11:04:51.307Z,48.34
2023-05-19T11:05:49.940Z,48.18
2023-05-19T11:06:48.753Z,48.98
2023-05-19T11:07:49.047Z,49.47
2023-05-19T11:08:49.197Z,51.40
2023-05-19T11:09:48.745Z,48.98
2023-05-19T11:10:48.701Z,52.85
2023-05-19T11:11:48.786Z,54.79
2023-05-19T11:12:48.919Z,53.50
2023-05-19T11:13:48.873Z,52.69
2023-05-19T11:14:48.806Z,54.95
2023-05-19T11:15:48.813Z,54.95
2023-05-19T11:16:49.111Z,54.95
2023-05-19T11:17:49.137Z,47.21
2023-05-19T11:18:48.849Z,49.95
2023-05-19T11:19:48.797Z,51.08
2023-05-19T11:20:48.798Z,50.43
2023-05-19T11:21:48.790Z,50.43
2023-05-19T11:22:48.886Z,50.43
2023-05-19T11:23:49.107Z,49.95
2023-05-19T11:24:48.756Z,51.08
2023-05-19T11:25:48.758Z,50.43
2023-05-19T11:26:48.789Z,49.79
2023-05-19T11:27:48.801Z,49.95
2023-05-19T11:28:48.977Z,49.15
2023-05-19T11:29:48.668Z,48.66
2023-05-19T11:30:48.672Z,50.27
2023-05-19T11:31:48.684Z,49.95
2023-05-19T11:32:48.777Z,49.79
2023-05-19T11:33:48.634Z,51.24
2023-05-19T11:34:48.655Z,51.40
2023-05-19T11:35:48.573Z,50.76
2023-05-19T11:36:48.675Z,49.95
2023-05-19T11:37:48.569Z,49.47
2023-05-19T11:38:48.535Z,50.76
2023-05-19T11:39:48.525Z,52.37
2023-05-19T11:40:48.487Z,53.17
2023-05-19T11:41:48.509Z,51.24
2023-05-19T11:42:48.683Z,49.31
2023-05-19T11:43:48.511Z,53.33
2023-05-19T11:44:48.488Z,50.60
2023-05-19T11:45:48.663Z,52.69
2023-05-19T11:46:48.724Z,52.21
2023-05-19T11:48:01.365Z,51.40
2023-05-19T11:48:50.583Z,48.82
2023-05-19T11:49:48.475Z,48.18
2023-05-19T11:50:48.583Z,49.79
2023-05-19T11:51:48.528Z,49.63
2023-05-19T11:52:48.526Z,48.66
2023-05-19T11:53:48.833Z,48.66
2023-05-19T11:54:48.513Z,50.27
2023-05-19T11:55:49.220Z,50.11
2023-05-19T11:56:48.612Z,47.70
2023-05-19T11:58:02.157Z,48.02
2023-05-19T11:58:50.689Z,47.70
2023-05-19T11:59:48.488Z,47.70
2023-05-19T12:00:48.615Z,48.34
2023-05-19T12:01:48.443Z,48.98
2023-05-19T12:02:48.566Z,49.95
2023-05-19T12:03:48.553Z,48.50
2023-05-19T12:04:48.532Z,49.15
2023-05-19T12:05:48.912Z,47.86
2023-05-19T12:06:48.515Z,49.31
2023-05-19T12:07:48.369Z,51.40
2023-05-19T12:08:48.351Z,50.92
2023-05-19T12:09:48.659Z,49.95
2023-05-19T12:10:48.473Z,48.98
2023-05-19T12:11:48.628Z,48.18
2023-05-19T12:12:48.396Z,48.02
2023-05-19T12:13:48.251Z,47.21
2023-05-19T12:14:48.478Z,49.95
2023-05-19T12:15:48.390Z,48.18
2023-05-19T12:16:48.329Z,48.18
2023-05-19T12:17:48.292Z,47.86
2023-05-19T12:18:48.356Z,48.02
2023-05-19T12:19:48.525Z,46.89
2023-05-19T12:20:48.329Z,46.73
2023-05-19T12:21:48.196Z,47.70
2023-05-19T12:22:48.216Z,46.57
2023-05-19T12:23:48.277Z,47.21
2023-05-19T12:24:48.234Z,46.73
2023-05-19T12:25:48.811Z,47.70
2023-05-19T12:26:48.516Z,46.25
2023-05-19T12:27:48.302Z,48.18
2023-05-19T12:28:48.270Z,46.57
2023-05-19T12:29:48.294Z,48.50
2023-05-19T12:30:48.282Z,49.79
2023-05-19T12:31:48.302Z,49.95
2023-05-19T12:32:48.273Z,51.24
2023-05-19T12:33:48.204Z,51.56
2023-05-19T12:34:48.206Z,49.47
2023-05-19T12:35:48.216Z,54.30
2023-05-19T12:36:48.248Z,54.30
2023-05-19T12:37:48.547Z,54.46
2023-05-19T12:38:48.188Z,48.18
2023-05-19T12:39:48.215Z,47.70
2023-05-19T12:40:48.158Z,48.66
2023-05-19T12:41:48.299Z,47.86
2023-05-19T12:42:48.248Z,51.24
2023-05-19T12:43:48.175Z,49.63
2023-05-19T12:44:48.234Z,49.31
2023-05-19T12:45:48.235Z,55.11
2023-05-19T12:46:48.444Z,52.37
2023-05-19T12:47:48.124Z,48.02
2023-05-19T12:48:48.669Z,49.47
2023-05-19T12:49:48.100Z,49.95
2023-05-19T12:50:48.153Z,51.08
2023-05-19T12:51:48.145Z,61.55
2023-05-19T12:52:48.216Z,58.97
2023-05-19T12:53:47.995Z,49.47
2023-05-19T12:54:48.028Z,48.82
2023-05-19T12:55:47.967Z,51.40
2023-05-19T12:56:47.944Z,49.15
2023-05-19T12:57:49.942Z,46.89
2023-05-19T12:58:49.048Z,47.05
2023-05-19T12:59:47.901Z,47.70
2023-05-19T13:00:48.149Z,47.05
2023-05-19T13:01:48.372Z,49.31
2023-05-19T13:02:48.444Z,45.60
2023-05-19T13:03:48.137Z,48.50
2023-05-19T13:04:47.995Z,48.34
2023-05-19T13:05:48.118Z,48.34
2023-05-19T13:06:48.024Z,49.47
2023-05-19T13:07:48.113Z,48.18
2023-05-19T13:08:47.996Z,49.47
2023-05-19T13:09:48.026Z,49.15
2023-05-19T13:10:47.891Z,50.27
2023-05-19T13:11:48.056Z,49.95
2023-05-19T13:12:48.229Z,52.69
2023-05-19T13:13:47.902Z,53.66
2023-05-19T13:14:48.148Z,50.76
2023-05-19T13:15:47.924Z,49.63
2023-05-19T13:16:47.951Z,49.95
2023-05-19T13:17:47.936Z,50.43
2023-05-19T13:18:47.950Z,49.95
2023-05-19T13:19:48.250Z,50.11
2023-05-19T13:20:47.873Z,48.66
2023-05-19T13:21:47.890Z,48.02
2023-05-19T13:22:48.129Z,47.53
2023-05-19T13:23:47.861Z,48.82
2023-05-19T13:24:47.967Z,50.76
2023-05-19T13:25:48.111Z,48.98
2023-05-19T13:26:47.826Z,48.98
2023-05-19T13:27:48.028Z,49.31
2023-05-19T13:28:47.926Z,49.31
2023-05-19T13:29:48.786Z,48.50
2023-05-19T13:30:47.898Z,49.15
2023-05-19T13:31:47.804Z,48.50
2023-05-19T13:32:47.896Z,47.21
2023-05-19T13:33:47.847Z,48.82
2023-05-19T13:34:47.873Z,49.47
2023-05-19T13:35:47.867Z,52.53
2023-05-19T13:36:48.629Z,48.34
2023-05-19T13:37:47.911Z,47.37
2023-05-19T13:38:48.001Z,48.98
2023-05-19T13:39:47.741Z,46.89
2023-05-19T13:40:47.767Z,48.02
2023-05-19T13:41:47.617Z,47.21
2023-05-19T13:42:47.606Z,48.34
2023-05-19T13:43:47.645Z,49.31
2023-05-19T13:44:47.668Z,47.05
2023-05-19T13:45:47.804Z,47.70
2023-05-19T13:46:49.999Z,46.89
2023-05-19T13:47:47.662Z,47.21
2023-05-19T13:48:48.110Z,49.63
2023-05-19T13:49:47.658Z,48.18
2023-05-19T13:50:47.961Z,49.79
2023-05-19T13:51:47.694Z,50.60
2023-05-19T13:52:47.828Z,48.82
2023-05-19T13:53:47.691Z,47.37
2023-05-19T13:54:47.685Z,48.18
2023-05-19T13:55:47.742Z,49.63
2023-05-19T13:56:47.702Z,48.66
2023-05-19T13:57:47.700Z,49.31
2023-05-19T13:58:47.627Z,48.98
2023-05-19T14:00:00.942Z,49.31
2023-05-19T14:00:49.685Z,48.98
2023-05-19T14:01:47.839Z,48.66
2023-05-19T14:02:47.673Z,49.79
2023-05-19T14:03:47.681Z,50.76
2023-05-19T14:04:47.559Z,51.24
2023-05-19T14:05:47.586Z,51.24
2023-05-19T14:06:47.797Z,50.43
2023-05-19T14:07:48.094Z,49.63
2023-05-19T14:08:47.609Z,49.79
2023-05-19T14:09:47.554Z,49.63
2023-05-19T14:10:47.765Z,53.33
2023-05-19T14:11:47.812Z,53.66
2023-05-19T14:13:14.176Z,51.72
2023-05-19T14:13:51.740Z,50.76
2023-05-19T14:14:47.450Z,49.95
2023-05-19T14:15:47.564Z,49.47
2023-05-19T14:16:47.626Z,49.15
2023-05-19T14:17:47.528Z,47.21
2023-05-19T14:18:47.946Z,47.05
2023-05-19T14:19:47.406Z,45.76
2023-05-19T14:20:47.444Z,46.73
2023-05-19T14:21:47.504Z,48.66
2023-05-19T14:22:47.787Z,47.37
2023-05-19T14:23:47.820Z,47.21
2023-05-19T14:24:47.697Z,48.02
2023-05-19T14:25:47.560Z,49.63
2023-05-19T14:26:47.436Z,47.21
2023-05-19T14:27:47.845Z,48.98
2023-05-19T14:28:47.439Z,48.98
2023-05-19T14:29:47.779Z,49.15
2023-05-19T14:30:47.528Z,47.86
2023-05-19T14:31:47.501Z,49.31
2023-05-19T14:32:47.908Z,48.82
2023-05-19T14:33:47.474Z,50.43
2023-05-19T14:34:48.324Z,48.50
2023-05-19T14:35:47.861Z,50.43
2023-05-19T14:36:47.506Z,49.47
2023-05-19T14:37:47.918Z,51.24
2023-05-19T14:38:48.393Z,49.31
2023-05-19T14:39:48.892Z,49.63
2023-05-19T14:40:47.913Z,48.98
2023-05-19T14:41:47.845Z,47.21
2023-05-19T14:42:47.925Z,49.79
2023-05-19T14:43:48.919Z,50.27
2023-05-19T14:44:47.831Z,50.43
2023-05-19T14:45:47.758Z,51.24
2023-05-19T14:46:48.076Z,49.79
2023-05-19T14:47:48.092Z,49.95
2023-05-19T14:48:47.689Z,48.98
2023-05-19T14:49:48.170Z,48.34
2023-05-19T14:50:47.993Z,48.18
2023-05-19T14:51:47.680Z,50.76
2023-05-19T14:52:47.262Z,51.40
2023-05-19T14:53:47.666Z,51.72
2023-05-19T14:54:47.301Z,47.21
2023-05-19T14:55:47.268Z,48.02
2023-05-19T14:56:47.288Z,51.08
2023-05-19T14:57:47.161Z,48.66
2023-05-19T14:58:47.211Z,52.53
2023-05-19T14:59:47.131Z,53.50
2023-05-19T15:00:47.567Z,52.53
2023-05-19T15:01:47.796Z,51.08
2023-05-19T15:02:47.515Z,50.92
2023-05-19T15:03:47.215Z,50.43
2023-05-19T15:04:47.900Z,52.69
2023-05-19T15:05:47.799Z,51.72
2023-05-19T15:06:52.293Z,49.47
2023-05-19T15:07:48.245Z,50.76
2023-05-19T15:08:47.450Z,48.50
2023-05-19T15:09:47.081Z,51.72
2023-05-19T15:10:47.479Z,49.47
2023-05-19T15:11:47.260Z,48.82
2023-05-19T15:12:47.671Z,53.33
2023-05-19T15:13:47.688Z,51.56
2023-05-19T15:14:47.364Z,51.40
2023-05-19T15:15:47.160Z,50.43
2023-05-19T15:16:47.659Z,50.60
2023-05-19T15:17:47.213Z,53.17
2023-05-19T15:18:47.073Z,51.56
2023-05-19T15:19:47.031Z,51.08
2023-05-19T15:20:47.274Z,52.53
2023-05-19T15:21:47.547Z,52.37
2023-05-19T15:22:47.037Z,52.21
2023-05-19T15:23:47.389Z,53.33
2023-05-19T15:24:47.274Z,50.92
2023-05-19T15:25:47.484Z,48.98
2023-05-19T15:26:46.963Z,50.92
2023-05-19T15:27:47.191Z,49.79
2023-05-19T15:28:47.392Z,48.82
2023-05-19T15:29:47.668Z,47.86
2023-05-19T15:30:47.306Z,48.34
2023-05-19T15:31:47.260Z,49.31
2023-05-19T15:32:47.782Z,49.79
2023-05-19T15:33:47.328Z,49.15
2023-05-19T15:34:47.274Z,49.31
2023-05-19T15:35:47.444Z,50.43
2023-05-19T15:36:47.248Z,49.95
2023-05-19T15:37:47.288Z,48.66
2023-05-19T15:38:46.918Z,47.53
2023-05-19T15:39:47.135Z,48.34
2023-05-19T15:40:47.035Z,48.66
2023-05-19T15:41:46.898Z,48.82
2023-05-19T15:42:46.957Z,49.47
2023-05-19T15:43:46.965Z,50.43
2023-05-19T15:44:46.943Z,48.66
2023-05-19T15:45:46.779Z,47.37
2023-05-19T15:46:46.979Z,48.98
2023-05-19T15:47:46.806Z,49.15
2023-05-19T15:48:46.806Z,49.47
2023-05-19T15:49:47.085Z,49.79
2023-05-19T15:50:46.732Z,50.43
2023-05-19T15:51:47.088Z,49.63
2023-05-19T15:52:46.990Z,51.40
2023-05-19T15:53:47.483Z,49.31
2023-05-19T15:54:46.921Z,50.43
2023-05-19T15:55:47.559Z,50.43
2023-05-19T15:56:46.876Z,49.95
2023-05-19T15:57:46.827Z,48.82
2023-05-19T15:58:47.296Z,49.31
2023-05-19T15:59:47.343Z,49.63
2023-05-19T16:00:47.116Z,50.43
2023-05-19T16:01:47.318Z,50.43
2023-05-19T16:02:47.536Z,51.56
2023-05-19T16:03:47.026Z,50.43
2023-05-19T16:04:46.776Z,50.27
2023-05-19T16:05:46.699Z,49.95
2023-05-19T16:06:46.812Z,49.31
2023-05-19T16:07:46.664Z,50.60
2023-05-19T16:08:46.857Z,51.40
2023-05-19T16:09:46.740Z,52.05
2023-05-19T16:10:47.051Z,48.98
2023-05-19T16:11:46.710Z,50.43
2023-05-19T16:12:47.077Z,50.76
2023-05-19T16:13:47.727Z,52.37
2023-05-19T16:14:47.196Z,52.37
2023-05-19T16:15:47.001Z,49.63
2023-05-19T16:16:46.694Z,50.92
2023-05-19T16:17:46.754Z,52.53
2023-05-19T16:18:47.089Z,52.53
2023-05-19T16:19:47.444Z,50.43
2023-05-19T16:20:46.902Z,51.24
2023-05-19T16:21:47.153Z,50.92
2023-05-19T16:22:47.129Z,50.11
2023-05-19T16:23:46.961Z,50.11
2023-05-19T16:24:47.121Z,51.08
2023-05-19T16:25:46.511Z,50.92
2023-05-19T16:26:46.581Z,50.92
2023-05-19T16:27:46.482Z,48.82
2023-05-19T16:28:47.058Z,49.95
2023-05-19T16:29:46.544Z,52.21
2023-05-19T16:30:47.114Z,50.92
2023-05-19T16:31:47.029Z,48.66
2023-05-19T16:32:47.010Z,49.31
2023-05-19T16:33:46.827Z,49.63
2023-05-19T16:34:46.626Z,52.21
2023-05-19T16:35:47.003Z,50.27
2023-05-19T16:36:46.530Z,49.95
2023-05-19T16:37:46.485Z,50.43
2023-05-19T16:38:47.001Z,48.02
2023-05-19T16:39:47.689Z,49.31
2023-05-19T16:40:46.472Z,49.31
2023-05-19T16:41:46.496Z,48.66
2023-05-19T16:42:46.614Z,49.47
2023-05-19T16:43:46.428Z,49.15
2023-05-19T16:44:47.246Z,50.43
2023-05-19T16:45:47.116Z,51.08
2023-05-19T16:46:47.032Z,47.70
2023-05-19T16:47:47.136Z,49.31
2023-05-19T16:48:47.052Z,47.86
2023-05-19T16:49:46.967Z,47.86
2023-05-19T16:50:47.095Z,50.27
2023-05-19T16:51:48.295Z,51.56